sensor_id;sensor_type;location;lat;lon;timestamp;temperature;humidity
78779;DHT22;68121;52.404;5.318;2023-06-22T00:02:00;20.50;64.00
78779;DHT22;68121;52.404;5.318;2023-06-22T00:04:27;20.50;64.10
78779;DHT22;68121;52.404;5.318;2023-06-22T00:06:53;20.40;64.30
78779;DHT22;68121;52.404;5.318;2023-06-22T00:09:19;20.30;64.50
78779;DHT22;68121;52.404;5.318;2023-06-22T00:11:45;20.30;64.70
78779;DHT22;68121;52.404;5.318;2023-06-22T00:14:11;20.30;65.00
78779;DHT22;68121;52.404;5.318;2023-06-22T00:16:37;20.30;65.20
78779;DHT22;68121;52.404;5.318;2023-06-22T00:19:03;20.30;65.40
78779;DHT22;68121;52.404;5.318;2023-06-22T00:21:29;20.20;65.60
78779;DHT22;68121;52.404;5.318;2023-06-22T00:23:56;20.20;65.70
78779;DHT22;68121;52.404;5.318;2023-06-22T00:26:23;20.20;65.80
78779;DHT22;68121;52.404;5.318;2023-06-22T00:28:49;20.20;65.90
78779;DHT22;68121;52.404;5.318;2023-06-22T00:31:15;20.10;65.90
78779;DHT22;68121;52.404;5.318;2023-06-22T00:33:41;20.20;66.10
78779;DHT22;68121;52.404;5.318;2023-06-22T00:36:07;20.20;66.30
78779;DHT22;68121;52.404;5.318;2023-06-22T00:38:34;20.10;66.40
78779;DHT22;68121;52.404;5.318;2023-06-22T00:41:00;20.10;66.60
78779;DHT22;68121;52.404;5.318;2023-06-22T00:43:26;20.10;66.80
78779;DHT22;68121;52.404;5.318;2023-06-22T00:45:52;20.10;67.00
78779;DHT22;68121;52.404;5.318;2023-06-22T00:48:18;20.00;67.20
78779;DHT22;68121;52.404;5.318;2023-06-22T00:50:44;20.00;67.20
78779;DHT22;68121;52.404;5.318;2023-06-22T00:53:10;20.00;67.20
78779;DHT22;68121;52.404;5.318;2023-06-22T00:55:41;20.00;67.20
78779;DHT22;68121;52.404;5.318;2023-06-22T00:58:09;20.10;67.30
78779;DHT22;68121;52.404;5.318;2023-06-22T01:00:40;20.00;67.30
78779;DHT22;68121;52.404;5.318;2023-06-22T01:03:07;20.00;67.30
78779;DHT22;68121;52.404;5.318;2023-06-22T01:05:37;20.00;67.40
78779;DHT22;68121;52.404;5.318;2023-06-22T01:11:35;20.00;67.60
78779;DHT22;68121;52.404;5.318;2023-06-22T01:14:19;20.00;67.70
78779;DHT22;68121;52.404;5.318;2023-06-22T01:16:50;20.00;67.80
78779;DHT22;68121;52.404;5.318;2023-06-22T01:22:05;19.90;67.70
78779;DHT22;68121;52.404;5.318;2023-06-22T01:30:30;19.50;67.50
78779;DHT22;68121;52.404;5.318;2023-06-22T01:33:01;19.40;67.40
78779;DHT22;68121;52.404;5.318;2023-06-22T01:35:30;19.40;67.60
78779;DHT22;68121;52.404;5.318;2023-06-22T01:37:56;19.30;67.70
78779;DHT22;68121;52.404;5.318;2023-06-22T01:40:23;19.30;67.70
78779;DHT22;68121;52.404;5.318;2023-06-22T01:42:50;19.20;67.80
78779;DHT22;68121;52.404;5.318;2023-06-22T01:45:17;19.20;67.80
78779;DHT22;68121;52.404;5.318;2023-06-22T01:47:44;19.20;67.90
78779;DHT22;68121;52.404;5.318;2023-06-22T01:50:11;19.20;67.90
78779;DHT22;68121;52.404;5.318;2023-06-22T01:52:37;19.20;68.00
78779;DHT22;68121;52.404;5.318;2023-06-22T01:55:03;19.20;68.00
78779;DHT22;68121;52.404;5.318;2023-06-22T01:57:30;19.20;68.00
78779;DHT22;68121;52.404;5.318;2023-06-22T02:00:04;19.20;67.90
78779;DHT22;68121;52.404;5.318;2023-06-22T02:02:40;19.10;68.00
78779;DHT22;68121;52.404;5.318;2023-06-22T02:05:09;19.10;68.00
78779;DHT22;68121;52.404;5.318;2023-06-22T02:07:52;19.10;67.90
78779;DHT22;68121;52.404;5.318;2023-06-22T02:10:20;19.10;68.00
78779;DHT22;68121;52.404;5.318;2023-06-22T02:12:48;19.10;68.00
78779;DHT22;68121;52.404;5.318;2023-06-22T02:15:15;19.10;68.00
78779;DHT22;68121;52.404;5.318;2023-06-22T02:17:42;19.00;68.20
78779;DHT22;68121;52.404;5.318;2023-06-22T02:20:19;18.90;68.40
78779;DHT22;68121;52.404;5.318;2023-06-22T02:22:46;18.80;68.70
78779;DHT22;68121;52.404;5.318;2023-06-22T02:25:12;18.70;68.70
78779;DHT22;68121;52.404;5.318;2023-06-22T02:27:38;18.70;68.70
78779;DHT22;68121;52.404;5.318;2023-06-22T02:30:10;18.70;68.80
78779;DHT22;68121;52.404;5.318;2023-06-22T02:32:36;18.70;68.80
78779;DHT22;68121;52.404;5.318;2023-06-22T02:35:02;18.70;69.00
78779;DHT22;68121;52.404;5.318;2023-06-22T02:37:31;18.70;69.00
78779;DHT22;68121;52.404;5.318;2023-06-22T02:39:57;18.70;69.10
78779;DHT22;68121;52.404;5.318;2023-06-22T02:42:23;18.70;69.20
78779;DHT22;68121;52.404;5.318;2023-06-22T02:44:49;18.70;69.20
78779;DHT22;68121;52.404;5.318;2023-06-22T02:47:17;18.70;69.30
78779;DHT22;68121;52.404;5.318;2023-06-22T02:49:43;18.70;69.40
78779;DHT22;68121;52.404;5.318;2023-06-22T02:52:10;18.70;69.50
78779;DHT22;68121;52.404;5.318;2023-06-22T02:54:36;18.70;69.50
78779;DHT22;68121;52.404;5.318;2023-06-22T02:57:03;18.70;69.60
78779;DHT22;68121;52.404;5.318;2023-06-22T02:59:29;18.70;69.70
78779;DHT22;68121;52.404;5.318;2023-06-22T03:01:55;18.70;69.70
78779;DHT22;68121;52.404;5.318;2023-06-22T03:04:21;18.70;69.80
78779;DHT22;68121;52.404;5.318;2023-06-22T03:06:47;18.70;69.80
78779;DHT22;68121;52.404;5.318;2023-06-22T03:09:17;18.70;69.80
78779;DHT22;68121;52.404;5.318;2023-06-22T03:11:43;18.70;69.80
78779;DHT22;68121;52.404;5.318;2023-06-22T03:14:09;18.70;69.80
78779;DHT22;68121;52.404;5.318;2023-06-22T03:16:35;18.70;69.80
78779;DHT22;68121;52.404;5.318;2023-06-22T03:19:01;18.70;69.80
78779;DHT22;68121;52.404;5.318;2023-06-22T03:21:28;18.70;69.80
78779;DHT22;68121;52.404;5.318;2023-06-22T03:23:55;18.70;69.80
78779;DHT22;68121;52.404;5.318;2023-06-22T03:26:21;18.70;69.70
78779;DHT22;68121;52.404;5.318;2023-06-22T03:28:47;18.70;69.70
78779;DHT22;68121;52.404;5.318;2023-06-22T03:31:13;18.60;69.60
78779;DHT22;68121;52.404;5.318;2023-06-22T03:33:39;18.60;69.60
78779;DHT22;68121;52.404;5.318;2023-06-22T03:36:05;18.60;69.60
78779;DHT22;68121;52.404;5.318;2023-06-22T03:38:32;18.60;69.60
78779;DHT22;68121;52.404;5.318;2023-06-22T03:40:58;18.60;69.50
78779;DHT22;68121;52.404;5.318;2023-06-22T03:43:24;18.60;69.50
78779;DHT22;68121;52.404;5.318;2023-06-22T03:45:50;18.50;69.40
78779;DHT22;68121;52.404;5.318;2023-06-22T03:48:16;18.50;69.40
78779;DHT22;68121;52.404;5.318;2023-06-22T03:50:42;18.50;69.40
78779;DHT22;68121;52.404;5.318;2023-06-22T03:53:10;18.40;69.50
78779;DHT22;68121;52.404;5.318;2023-06-22T03:55:36;18.40;69.60
78779;DHT22;68121;52.404;5.318;2023-06-22T03:58:02;18.40;69.60
78779;DHT22;68121;52.404;5.318;2023-06-22T04:00:34;18.40;69.60
78779;DHT22;68121;52.404;5.318;2023-06-22T04:03:00;18.40;69.60
78779;DHT22;68121;52.404;5.318;2023-06-22T04:05:26;18.40;69.60
78779;DHT22;68121;52.404;5.318;2023-06-22T04:07:52;18.40;69.60
78779;DHT22;68121;52.404;5.318;2023-06-22T04:10:18;18.40;69.60
78779;DHT22;68121;52.404;5.318;2023-06-22T04:12:44;18.40;69.60
78779;DHT22;68121;52.404;5.318;2023-06-22T04:15:10;18.40;69.60
78779;DHT22;68121;52.404;5.318;2023-06-22T04:17:37;18.40;69.60
78779;DHT22;68121;52.404;5.318;2023-06-22T04:20:04;18.40;69.60
78779;DHT22;68121;52.404;5.318;2023-06-22T04:22:30;18.40;69.70
78779;DHT22;68121;52.404;5.318;2023-06-22T04:24:56;18.40;69.70
78779;DHT22;68121;52.404;5.318;2023-06-22T04:27:22;18.40;69.90
78779;DHT22;68121;52.404;5.318;2023-06-22T04:29:49;18.40;70.00
78779;DHT22;68121;52.404;5.318;2023-06-22T04:32:15;18.40;70.10
78779;DHT22;68121;52.404;5.318;2023-06-22T04:34:42;18.40;70.30
78779;DHT22;68121;52.404;5.318;2023-06-22T04:37:08;18.40;70.40
78779;DHT22;68121;52.404;5.318;2023-06-22T04:39:34;18.40;70.50
78779;DHT22;68121;52.404;5.318;2023-06-22T04:42:01;18.40;70.60
78779;DHT22;68121;52.404;5.318;2023-06-22T04:44:28;18.40;70.70
78779;DHT22;68121;52.404;5.318;2023-06-22T04:46:58;18.50;70.80
78779;DHT22;68121;52.404;5.318;2023-06-22T04:49:30;18.50;70.80
78779;DHT22;68121;52.404;5.318;2023-06-22T04:52:01;18.60;70.80
78779;DHT22;68121;52.404;5.318;2023-06-22T04:54:28;18.60;70.90
78779;DHT22;68121;52.404;5.318;2023-06-22T04:56:54;18.60;70.90
78779;DHT22;68121;52.404;5.318;2023-06-22T04:59:24;18.60;71.00
78779;DHT22;68121;52.404;5.318;2023-06-22T05:01:58;18.60;71.10
78779;DHT22;68121;52.404;5.318;2023-06-22T05:04:26;18.70;71.10
78779;DHT22;68121;52.404;5.318;2023-06-22T05:06:54;18.70;71.10
78779;DHT22;68121;52.404;5.318;2023-06-22T05:09:20;18.70;71.10
78779;DHT22;68121;52.404;5.318;2023-06-22T05:11:47;18.80;71.20
78779;DHT22;68121;52.404;5.318;2023-06-22T05:14:13;18.80;71.20
78779;DHT22;68121;52.404;5.318;2023-06-22T05:16:41;18.80;71.10
78779;DHT22;68121;52.404;5.318;2023-06-22T05:19:08;18.90;71.20
78779;DHT22;68121;52.404;5.318;2023-06-22T05:21:34;19.00;71.20
78779;DHT22;68121;52.404;5.318;2023-06-22T05:24:00;19.10;71.20
78779;DHT22;68121;52.404;5.318;2023-06-22T05:26:29;19.10;71.20
78779;DHT22;68121;52.404;5.318;2023-06-22T05:28:56;19.20;71.20
78779;DHT22;68121;52.404;5.318;2023-06-22T05:31:23;19.20;71.20
78779;DHT22;68121;52.404;5.318;2023-06-22T05:33:52;19.30;71.20
78779;DHT22;68121;52.404;5.318;2023-06-22T05:36:18;19.30;71.20
78779;DHT22;68121;52.404;5.318;2023-06-22T05:38:56;19.40;71.20
78779;DHT22;68121;52.404;5.318;2023-06-22T05:41:23;19.40;71.20
78779;DHT22;68121;52.404;5.318;2023-06-22T05:43:49;19.50;71.30
78779;DHT22;68121;52.404;5.318;2023-06-22T05:46:15;19.50;71.30
78779;DHT22;68121;52.404;5.318;2023-06-22T05:48:42;19.50;71.30
78779;DHT22;68121;52.404;5.318;2023-06-22T05:51:08;19.50;71.40
78779;DHT22;68121;52.404;5.318;2023-06-22T05:53:34;19.70;71.50
78779;DHT22;68121;52.404;5.318;2023-06-22T05:56:00;19.70;71.50
78779;DHT22;68121;52.404;5.318;2023-06-22T05:58:26;19.80;71.40
78779;DHT22;68121;52.404;5.318;2023-06-22T06:00:52;19.90;71.40
78779;DHT22;68121;52.404;5.318;2023-06-22T06:03:18;20.00;71.40
78779;DHT22;68121;52.404;5.318;2023-06-22T06:05:44;20.10;71.20
78779;DHT22;68121;52.404;5.318;2023-06-22T06:08:11;20.20;71.20
78779;DHT22;68121;52.404;5.318;2023-06-22T06:10:38;20.30;71.10
78779;DHT22;68121;52.404;5.318;2023-06-22T06:13:04;20.50;71.10
78779;DHT22;68121;52.404;5.318;2023-06-22T06:15:31;20.50;70.90
78779;DHT22;68121;52.404;5.318;2023-06-22T06:17:58;20.60;70.80
78779;DHT22;68121;52.404;5.318;2023-06-22T06:20:25;20.70;70.70
78779;DHT22;68121;52.404;5.318;2023-06-22T06:22:52;20.70;70.60
78779;DHT22;68121;52.404;5.318;2023-06-22T06:25:18;20.70;70.60
78779;DHT22;68121;52.404;5.318;2023-06-22T06:27:46;20.70;70.50
78779;DHT22;68121;52.404;5.318;2023-06-22T06:30:14;20.80;70.50
78779;DHT22;68121;52.404;5.318;2023-06-22T06:32:41;20.80;70.50
78779;DHT22;68121;52.404;5.318;2023-06-22T06:35:09;20.80;70.50
78779;DHT22;68121;52.404;5.318;2023-06-22T06:37:36;20.80;70.50
78779;DHT22;68121;52.404;5.318;2023-06-22T06:40:07;20.90;70.50
78779;DHT22;68121;52.404;5.318;2023-06-22T06:42:38;20.90;70.40
78779;DHT22;68121;52.404;5.318;2023-06-22T06:45:14;21.00;70.20
78779;DHT22;68121;52.404;5.318;2023-06-22T06:47:40;21.00;70.10
78779;DHT22;68121;52.404;5.318;2023-06-22T06:50:07;21.10;70.00
78779;DHT22;68121;52.404;5.318;2023-06-22T06:52:34;21.20;69.90
78779;DHT22;68121;52.404;5.318;2023-06-22T06:55:00;21.30;69.90
78779;DHT22;68121;52.404;5.318;2023-06-22T06:57:26;21.40;69.70
78779;DHT22;68121;52.404;5.318;2023-06-22T06:59:56;21.50;69.40
78779;DHT22;68121;52.404;5.318;2023-06-22T07:02:23;21.60;69.20
78779;DHT22;68121;52.404;5.318;2023-06-22T07:04:50;21.70;69.00
78779;DHT22;68121;52.404;5.318;2023-06-22T07:07:16;21.70;68.80
78779;DHT22;68121;52.404;5.318;2023-06-22T07:09:42;21.70;68.70
78779;DHT22;68121;52.404;5.318;2023-06-22T07:12:09;21.80;68.60
78779;DHT22;68121;52.404;5.318;2023-06-22T07:14:35;21.90;68.50
78779;DHT22;68121;52.404;5.318;2023-06-22T07:17:01;22.00;68.50
78779;DHT22;68121;52.404;5.318;2023-06-22T07:19:28;22.10;68.30
78779;DHT22;68121;52.404;5.318;2023-06-22T07:21:54;22.20;68.20
78779;DHT22;68121;52.404;5.318;2023-06-22T07:24:21;22.40;67.80
78779;DHT22;68121;52.404;5.318;2023-06-22T07:26:48;22.50;67.50
78779;DHT22;68121;52.404;5.318;2023-06-22T07:29:19;22.50;67.20
78779;DHT22;68121;52.404;5.318;2023-06-22T07:31:49;22.50;67.10
78779;DHT22;68121;52.404;5.318;2023-06-22T07:34:17;22.50;67.00
78779;DHT22;68121;52.404;5.318;2023-06-22T07:36:44;22.60;66.90
78779;DHT22;68121;52.404;5.318;2023-06-22T07:39:10;22.70;66.70
78779;DHT22;68121;52.404;5.318;2023-06-22T07:41:39;22.90;66.60
78779;DHT22;68121;52.404;5.318;2023-06-22T07:44:05;23.00;66.30
78779;DHT22;68121;52.404;5.318;2023-06-22T07:46:32;23.00;66.10
78779;DHT22;68121;52.404;5.318;2023-06-22T07:48:58;23.10;65.90
78779;DHT22;68121;52.404;5.318;2023-06-22T07:51:25;23.20;65.60
78779;DHT22;68121;52.404;5.318;2023-06-22T07:53:52;23.20;65.50
78779;DHT22;68121;52.404;5.318;2023-06-22T07:56:18;23.30;65.50
78779;DHT22;68121;52.404;5.318;2023-06-22T07:58:46;23.40;65.40
78779;DHT22;68121;52.404;5.318;2023-06-22T08:01:14;23.60;65.20
78779;DHT22;68121;52.404;5.318;2023-06-22T08:03:40;23.80;64.80
78779;DHT22;68121;52.404;5.318;2023-06-22T08:06:07;23.90;64.50
78779;DHT22;68121;52.404;5.318;2023-06-22T08:08:37;23.90;64.20
78779;DHT22;68121;52.404;5.318;2023-06-22T08:11:03;24.00;64.10
78779;DHT22;68121;52.404;5.318;2023-06-22T08:13:30;24.00;64.00
78779;DHT22;68121;52.404;5.318;2023-06-22T08:15:56;24.20;63.90
78779;DHT22;68121;52.404;5.318;2023-06-22T08:18:22;24.40;63.40
78779;DHT22;68121;52.404;5.318;2023-06-22T08:20:48;24.40;63.10
78779;DHT22;68121;52.404;5.318;2023-06-22T08:23:15;24.40;63.00
78779;DHT22;68121;52.404;5.318;2023-06-22T08:25:41;24.40;63.00
78779;DHT22;68121;52.404;5.318;2023-06-22T08:28:07;24.40;62.90
78779;DHT22;68121;52.404;5.318;2023-06-22T08:30:33;24.50;62.70
78779;DHT22;68121;52.404;5.318;2023-06-22T08:32:59;24.60;62.50
78779;DHT22;68121;52.404;5.318;2023-06-22T08:35:25;24.70;62.40
78779;DHT22;68121;52.404;5.318;2023-06-22T08:37:52;24.80;62.20
78779;DHT22;68121;52.404;5.318;2023-06-22T08:40:21;24.90;62.00
78779;DHT22;68121;52.404;5.318;2023-06-22T08:42:47;25.00;61.90
78779;DHT22;68121;52.404;5.318;2023-06-22T08:45:14;25.00;61.90
78779;DHT22;68121;52.404;5.318;2023-06-22T08:47:41;25.10;61.70
78779;DHT22;68121;52.404;5.318;2023-06-22T08:50:08;25.20;61.50
78779;DHT22;68121;52.404;5.318;2023-06-22T08:52:35;25.30;61.40
78779;DHT22;68121;52.404;5.318;2023-06-22T08:55:01;25.40;61.20
78779;DHT22;68121;52.404;5.318;2023-06-22T08:57:28;25.50;61.00
78779;DHT22;68121;52.404;5.318;2023-06-22T08:59:54;25.60;60.80
78779;DHT22;68121;52.404;5.318;2023-06-22T09:02:25;25.60;60.70
78779;DHT22;68121;52.404;5.318;2023-06-22T09:04:51;25.80;60.50
78779;DHT22;68121;52.404;5.318;2023-06-22T09:07:22;25.80;60.30
78779;DHT22;68121;52.404;5.318;2023-06-22T09:09:50;25.90;60.10
78779;DHT22;68121;52.404;5.318;2023-06-22T09:12:17;25.90;59.80
78779;DHT22;68121;52.404;5.318;2023-06-22T09:14:46;25.90;59.80
78779;DHT22;68121;52.404;5.318;2023-06-22T09:17:13;26.00;59.70
78779;DHT22;68121;52.404;5.318;2023-06-22T09:19:39;26.10;59.70
78779;DHT22;68121;52.404;5.318;2023-06-22T09:22:05;26.20;59.40
78779;DHT22;68121;52.404;5.318;2023-06-22T09:24:32;26.40;59.20
78779;DHT22;68121;52.404;5.318;2023-06-22T09:26:58;26.40;59.10
78779;DHT22;68121;52.404;5.318;2023-06-22T09:29:25;26.40;58.70
78779;DHT22;68121;52.404;5.318;2023-06-22T09:31:51;26.40;58.70
78779;DHT22;68121;52.404;5.318;2023-06-22T09:34:19;26.40;58.70
78779;DHT22;68121;52.404;5.318;2023-06-22T09:36:46;26.50;58.60
78779;DHT22;68121;52.404;5.318;2023-06-22T09:39:12;26.60;58.40
78779;DHT22;68121;52.404;5.318;2023-06-22T09:41:39;26.70;58.20
78779;DHT22;68121;52.404;5.318;2023-06-22T09:44:05;26.80;57.90
78779;DHT22;68121;52.404;5.318;2023-06-22T09:46:31;26.80;57.60
78779;DHT22;68121;52.404;5.318;2023-06-22T09:48:57;26.80;57.60
78779;DHT22;68121;52.404;5.318;2023-06-22T09:51:23;26.80;57.40
78779;DHT22;68121;52.404;5.318;2023-06-22T09:53:50;26.70;57.30
78779;DHT22;68121;52.404;5.318;2023-06-22T09:56:16;26.60;57.40
78779;DHT22;68121;52.404;5.318;2023-06-22T09:58:43;26.60;57.40
78779;DHT22;68121;52.404;5.318;2023-06-22T10:01:10;26.50;57.50
78779;DHT22;68121;52.404;5.318;2023-06-22T10:03:37;26.50;57.60
78779;DHT22;68121;52.404;5.318;2023-06-22T10:06:03;26.50;57.40
78779;DHT22;68121;52.404;5.318;2023-06-22T10:08:29;26.50;57.60
78779;DHT22;68121;52.404;5.318;2023-06-22T10:10:56;26.40;57.60
78779;DHT22;68121;52.404;5.318;2023-06-22T10:13:22;26.40;57.60
78779;DHT22;68121;52.404;5.318;2023-06-22T10:15:48;26.50;57.70
78779;DHT22;68121;52.404;5.318;2023-06-22T10:18:21;26.40;57.50
78779;DHT22;68121;52.404;5.318;2023-06-22T10:20:49;26.20;57.40
78779;DHT22;68121;52.404;5.318;2023-06-22T10:23:19;26.10;57.60
78779;DHT22;68121;52.404;5.318;2023-06-22T10:25:45;26.10;57.70
78779;DHT22;68121;52.404;5.318;2023-06-22T10:28:12;26.10;57.70
78779;DHT22;68121;52.404;5.318;2023-06-22T10:30:39;26.00;57.80
78779;DHT22;68121;52.404;5.318;2023-06-22T10:33:08;26.00;57.90
78779;DHT22;68121;52.404;5.318;2023-06-22T10:35:34;26.00;57.90
78779;DHT22;68121;52.404;5.318;2023-06-22T10:38:00;26.00;58.00
78779;DHT22;68121;52.404;5.318;2023-06-22T10:40:27;25.90;57.90
78779;DHT22;68121;52.404;5.318;2023-06-22T10:42:53;25.80;57.70
78779;DHT22;68121;52.404;5.318;2023-06-22T10:45:19;25.80;57.60
78779;DHT22;68121;52.404;5.318;2023-06-22T10:47:45;25.60;57.40
78779;DHT22;68121;52.404;5.318;2023-06-22T10:50:11;25.60;57.30
78779;DHT22;68121;52.404;5.318;2023-06-22T10:52:38;25.60;57.10
78779;DHT22;68121;52.404;5.318;2023-06-22T10:55:04;25.60;57.00
78779;DHT22;68121;52.404;5.318;2023-06-22T10:57:30;25.50;56.90
78779;DHT22;68121;52.404;5.318;2023-06-22T10:59:57;25.50;56.80
78779;DHT22;68121;52.404;5.318;2023-06-22T11:02:23;25.40;56.80
78779;DHT22;68121;52.404;5.318;2023-06-22T11:04:50;25.40;56.80
78779;DHT22;68121;52.404;5.318;2023-06-22T11:07:16;25.40;56.90
78779;DHT22;68121;52.404;5.318;2023-06-22T11:09:45;25.30;57.20
78779;DHT22;68121;52.404;5.318;2023-06-22T11:12:11;25.30;57.30
78779;DHT22;68121;52.404;5.318;2023-06-22T11:14:39;25.30;57.40
78779;DHT22;68121;52.404;5.318;2023-06-22T11:17:05;25.30;57.30
78779;DHT22;68121;52.404;5.318;2023-06-22T11:19:31;25.20;57.20
78779;DHT22;68121;52.404;5.318;2023-06-22T11:21:57;25.20;57.30
78779;DHT22;68121;52.404;5.318;2023-06-22T11:24:23;25.20;57.40
78779;DHT22;68121;52.404;5.318;2023-06-22T11:26:49;25.20;57.40
78779;DHT22;68121;52.404;5.318;2023-06-22T11:29:15;25.10;57.50
78779;DHT22;68121;52.404;5.318;2023-06-22T11:31:43;25.10;57.60
78779;DHT22;68121;52.404;5.318;2023-06-22T11:34:09;25.10;57.70
78779;DHT22;68121;52.404;5.318;2023-06-22T11:36:35;25.00;57.90
78779;DHT22;68121;52.404;5.318;2023-06-22T11:39:02;25.00;57.90
78779;DHT22;68121;52.404;5.318;2023-06-22T11:41:28;25.00;58.00
78779;DHT22;68121;52.404;5.318;2023-06-22T11:43:54;25.00;58.10
78779;DHT22;68121;52.404;5.318;2023-06-22T11:46:20;25.00;58.10
78779;DHT22;68121;52.404;5.318;2023-06-22T11:48:46;25.00;58.20
78779;DHT22;68121;52.404;5.318;2023-06-22T11:51:12;25.00;58.20
78779;DHT22;68121;52.404;5.318;2023-06-22T11:53:38;25.00;58.30
78779;DHT22;68121;52.404;5.318;2023-06-22T11:56:04;25.00;58.30
78779;DHT22;68121;52.404;5.318;2023-06-22T11:58:30;25.00;58.50
78779;DHT22;68121;52.404;5.318;2023-06-22T12:00:56;24.90;58.50
78779;DHT22;68121;52.404;5.318;2023-06-22T12:03:22;24.90;58.50
78779;DHT22;68121;52.404;5.318;2023-06-22T12:05:50;24.80;58.50
78779;DHT22;68121;52.404;5.318;2023-06-22T12:08:18;24.70;58.50
78779;DHT22;68121;52.404;5.318;2023-06-22T12:10:44;24.60;58.40
78779;DHT22;68121;52.404;5.318;2023-06-22T12:13:10;24.60;58.40
78779;DHT22;68121;52.404;5.318;2023-06-22T12:15:36;24.50;58.40
78779;DHT22;68121;52.404;5.318;2023-06-22T12:18:02;24.50;58.50
78779;DHT22;68121;52.404;5.318;2023-06-22T12:20:29;24.50;58.50
78779;DHT22;68121;52.404;5.318;2023-06-22T12:22:55;24.50;58.50
78779;DHT22;68121;52.404;5.318;2023-06-22T12:25:23;24.50;58.50
78779;DHT22;68121;52.404;5.318;2023-06-22T12:27:50;24.50;58.50
78779;DHT22;68121;52.404;5.318;2023-06-22T12:30:16;24.60;58.60
78779;DHT22;68121;52.404;5.318;2023-06-22T12:32:42;24.50;58.70
78779;DHT22;68121;52.404;5.318;2023-06-22T12:35:08;24.50;58.90
78779;DHT22;68121;52.404;5.318;2023-06-22T12:37:43;24.50;59.00
78779;DHT22;68121;52.404;5.318;2023-06-22T12:40:10;24.50;59.10
78779;DHT22;68121;52.404;5.318;2023-06-22T12:42:36;24.50;59.30
78779;DHT22;68121;52.404;5.318;2023-06-22T12:45:02;24.40;59.30
78779;DHT22;68121;52.404;5.318;2023-06-22T12:47:29;24.40;59.40
78779;DHT22;68121;52.404;5.318;2023-06-22T12:49:55;24.40;59.60
78779;DHT22;68121;52.404;5.318;2023-06-22T12:52:21;24.40;59.70
78779;DHT22;68121;52.404;5.318;2023-06-22T12:54:48;24.40;59.80
78779;DHT22;68121;52.404;5.318;2023-06-22T12:57:14;24.40;59.90
78779;DHT22;68121;52.404;5.318;2023-06-22T12:59:40;24.40;60.10
78779;DHT22;68121;52.404;5.318;2023-06-22T13:02:06;24.40;60.30
78779;DHT22;68121;52.404;5.318;2023-06-22T13:04:32;24.40;60.80
78779;DHT22;68121;52.404;5.318;2023-06-22T13:06:58;24.40;61.10
78779;DHT22;68121;52.404;5.318;2023-06-22T13:09:25;24.20;61.20
78779;DHT22;68121;52.404;5.318;2023-06-22T13:11:51;24.20;61.50
78779;DHT22;68121;52.404;5.318;2023-06-22T13:14:18;24.20;61.70
78779;DHT22;68121;52.404;5.318;2023-06-22T13:16:44;24.10;62.00
78779;DHT22;68121;52.404;5.318;2023-06-22T13:19:10;24.00;62.20
78779;DHT22;68121;52.404;5.318;2023-06-22T13:21:36;24.00;62.50
78779;DHT22;68121;52.404;5.318;2023-06-22T13:24:03;23.90;62.60
78779;DHT22;68121;52.404;5.318;2023-06-22T13:26:29;23.90;62.80
78779;DHT22;68121;52.404;5.318;2023-06-22T13:28:55;23.90;63.00
78779;DHT22;68121;52.404;5.318;2023-06-22T13:31:21;23.90;63.10
78779;DHT22;68121;52.404;5.318;2023-06-22T13:33:48;23.80;63.20
78779;DHT22;68121;52.404;5.318;2023-06-22T13:36:14;23.80;63.40
78779;DHT22;68121;52.404;5.318;2023-06-22T13:38:41;23.80;63.40
78779;DHT22;68121;52.404;5.318;2023-06-22T13:41:07;23.80;63.50
78779;DHT22;68121;52.404;5.318;2023-06-22T13:43:33;23.80;63.60
78779;DHT22;68121;52.404;5.318;2023-06-22T13:45:59;23.80;63.70
78779;DHT22;68121;52.404;5.318;2023-06-22T13:48:25;23.70;63.80
78779;DHT22;68121;52.404;5.318;2023-06-22T13:50:52;23.70;63.90
78779;DHT22;68121;52.404;5.318;2023-06-22T13:53:18;23.70;64.00
78779;DHT22;68121;52.404;5.318;2023-06-22T13:55:44;23.70;64.10
78779;DHT22;68121;52.404;5.318;2023-06-22T13:58:10;23.70;64.10
78779;DHT22;68121;52.404;5.318;2023-06-22T14:00:37;23.70;64.20
78779;DHT22;68121;52.404;5.318;2023-06-22T14:03:03;23.70;64.30
78779;DHT22;68121;52.404;5.318;2023-06-22T14:05:29;23.70;64.50
78779;DHT22;68121;52.404;5.318;2023-06-22T14:07:55;23.80;64.60
78779;DHT22;68121;52.404;5.318;2023-06-22T14:10:21;23.80;64.70
78779;DHT22;68121;52.404;5.318;2023-06-22T14:12:47;23.80;64.80
78779;DHT22;68121;52.404;5.318;2023-06-22T14:15:13;23.80;65.00
78779;DHT22;68121;52.404;5.318;2023-06-22T14:17:39;23.70;65.00
78779;DHT22;68121;52.404;5.318;2023-06-22T14:20:05;23.70;65.10
78779;DHT22;68121;52.404;5.318;2023-06-22T14:22:34;23.60;65.20
78779;DHT22;68121;52.404;5.318;2023-06-22T14:25:01;23.60;65.20
78779;DHT22;68121;52.404;5.318;2023-06-22T14:27:27;23.60;65.40
78779;DHT22;68121;52.404;5.318;2023-06-22T14:29:53;23.60;65.40
78779;DHT22;68121;52.404;5.318;2023-06-22T14:32:19;23.60;65.40
78779;DHT22;68121;52.404;5.318;2023-06-22T14:34:45;23.60;65.40
78779;DHT22;68121;52.404;5.318;2023-06-22T14:37:11;23.50;65.50
78779;DHT22;68121;52.404;5.318;2023-06-22T14:39:41;23.50;65.60
78779;DHT22;68121;52.404;5.318;2023-06-22T14:42:08;23.40;65.70
78779;DHT22;68121;52.404;5.318;2023-06-22T14:44:34;23.40;65.90
78779;DHT22;68121;52.404;5.318;2023-06-22T14:47:00;23.30;66.00
78779;DHT22;68121;52.404;5.318;2023-06-22T14:49:27;23.30;66.00
78779;DHT22;68121;52.404;5.318;2023-06-22T14:51:53;23.20;66.10
78779;DHT22;68121;52.404;5.318;2023-06-22T14:54:19;23.20;66.20
78779;DHT22;68121;52.404;5.318;2023-06-22T14:56:45;23.10;66.20
78779;DHT22;68121;52.404;5.318;2023-06-22T14:59:12;23.00;66.30
78779;DHT22;68121;52.404;5.318;2023-06-22T15:01:38;23.00;66.50
78779;DHT22;68121;52.404;5.318;2023-06-22T15:04:04;22.90;66.60
78779;DHT22;68121;52.404;5.318;2023-06-22T15:06:30;22.80;66.70
78779;DHT22;68121;52.404;5.318;2023-06-22T15:08:56;22.80;66.90
78779;DHT22;68121;52.404;5.318;2023-06-22T15:11:22;22.70;67.00
78779;DHT22;68121;52.404;5.318;2023-06-22T15:13:48;22.70;67.00
78779;DHT22;68121;52.404;5.318;2023-06-22T15:16:14;22.60;67.20
78779;DHT22;68121;52.404;5.318;2023-06-22T15:18:41;22.60;67.30
78779;DHT22;68121;52.404;5.318;2023-06-22T15:21:07;22.60;67.50
78779;DHT22;68121;52.404;5.318;2023-06-22T15:23:34;22.60;67.40
78779;DHT22;68121;52.404;5.318;2023-06-22T15:26:02;22.60;67.40
78779;DHT22;68121;52.404;5.318;2023-06-22T15:28:29;22.50;67.60
78779;DHT22;68121;52.404;5.318;2023-06-22T15:30:55;22.50;67.60
78779;DHT22;68121;52.404;5.318;2023-06-22T15:33:21;22.50;67.70
78779;DHT22;68121;52.404;5.318;2023-06-22T15:35:47;22.50;67.70
78779;DHT22;68121;52.404;5.318;2023-06-22T15:38:14;22.50;67.80
78779;DHT22;68121;52.404;5.318;2023-06-22T15:40:40;22.50;67.90